sensor_id;sensor_type;location;lat;lon;timestamp;temperature;humidity
35960;DHT22;22043;50.970;7.192;2022-07-30T00:02:07;19.00;99.90
35960;DHT22;22043;50.970;7.192;2022-07-30T00:04:34;19.00;99.90
35960;DHT22;22043;50.970;7.192;2022-07-30T00:07:00;19.00;99.90
35960;DHT22;22043;50.970;7.192;2022-07-30T00:09:26;18.90;99.90
35960;DHT22;22043;50.970;7.192;2022-07-30T00:11:51;18.90;99.90
35960;DHT22;22043;50.970;7.192;2022-07-30T00:14:17;18.90;99.90
35960;DHT22;22043;50.970;7.192;2022-07-30T00:16:43;18.80;99.90
35960;DHT22;22043;50.970;7.192;2022-07-30T00:19:08;18.80;99.90
35960;DHT22;22043;50.970;7.192;2022-07-30T00:21:34;18.70;99.90
35960;DHT22;22043;50.970;7.192;2022-07-30T00:24:00;18.70;99.90
35960;DHT22;22043;50.970;7.192;2022-07-30T00:26:26;18.60;99.90
35960;DHT22;22043;50.970;7.192;2022-07-30T00:28:52;18.60;99.90
35960;DHT22;22043;50.970;7.192;2022-07-30T00:31:17;18.60;99.90
35960;DHT22;22043;50.970;7.192;2022-07-30T00:33:43;18.50;99.90
35960;DHT22;22043;50.970;7.192;2022-07-30T00:36:09;18.50;99.90
35960;DHT22;22043;50.970;7.192;2022-07-30T00:38:34;18.50;99.90
35960;DHT22;22043;50.970;7.192;2022-07-30T00:41:00;18.50;99.90
35960;DHT22;22043;50.970;7.192;2022-07-30T00:43:26;18.40;99.90
35960;DHT22;22043;50.970;7.192;2022-07-30T00:45:52;18.40;99.90
35960;DHT22;22043;50.970;7.192;2022-07-30T00:48:17;18.40;99.90
35960;DHT22;22043;50.970;7.192;2022-07-30T00:50:43;18.40;99.90
35960;DHT22;22043;50.970;7.192;2022-07-30T00:53:09;18.40;99.90
35960;DHT22;22043;50.970;7.192;2022-07-30T00:55:34;18.40;99.90
35960;DHT22;22043;50.970;7.192;2022-07-30T00:58:00;18.30;99.90
35960;DHT22;22043;50.970;7.192;2022-07-30T01:00:27;18.30;99.90
35960;DHT22;22043;50.970;7.192;2022-07-30T01:02:52;18.30;99.90
35960;DHT22;22043;50.970;7.192;2022-07-30T01:05:18;18.30;99.90
35960;DHT22;22043;50.970;7.192;2022-07-30T01:07:44;18.30;99.90
35960;DHT22;22043;50.970;7.192;2022-07-30T01:10:13;18.30;99.90
35960;DHT22;22043;50.970;7.192;2022-07-30T01:12:39;18.20;99.90
35960;DHT22;22043;50.970;7.192;2022-07-30T01:15:07;18.20;99.90
35960;DHT22;22043;50.970;7.192;2022-07-30T01:17:34;18.20;99.90
35960;DHT22;22043;50.970;7.192;2022-07-30T01:20:07;18.20;99.90
35960;DHT22;22043;50.970;7.192;2022-07-30T01:22:50;18.10;99.90
35960;DHT22;22043;50.970;7.192;2022-07-30T01:25:26;18.10;99.90
35960;DHT22;22043;50.970;7.192;2022-07-30T01:27:58;18.10;99.90
35960;DHT22;22043;50.970;7.192;2022-07-30T01:30:29;18.10;99.90
35960;DHT22;22043;50.970;7.192;2022-07-30T01:32:57;18.00;99.90
35960;DHT22;22043;50.970;7.192;2022-07-30T01:35:25;18.00;99.90
35960;DHT22;22043;50.970;7.192;2022-07-30T01:37:53;18.00;99.90
35960;DHT22;22043;50.970;7.192;2022-07-30T01:40:20;18.00;99.90
35960;DHT22;22043;50.970;7.192;2022-07-30T01:46:27;18.00;99.90
35960;DHT22;22043;50.970;7.192;2022-07-30T01:48:55;18.00;99.90
35960;DHT22;22043;50.970;7.192;2022-07-30T01:51:29;17.90;99.90
35960;DHT22;22043;50.970;7.192;2022-07-30T01:53:58;17.90;99.90
35960;DHT22;22043;50.970;7.192;2022-07-30T01:56:25;17.90;99.90
35960;DHT22;22043;50.970;7.192;2022-07-30T01:58:53;17.90;99.90
35960;DHT22;22043;50.970;7.192;2022-07-30T02:01:22;17.80;99.90
35960;DHT22;22043;50.970;7.192;2022-07-30T02:03:49;17.80;99.90
35960;DHT22;22043;50.970;7.192;2022-07-30T02:06:28;17.80;99.90
35960;DHT22;22043;50.970;7.192;2022-07-30T02:09:02;17.80;99.90
35960;DHT22;22043;50.970;7.192;2022-07-30T02:11:35;17.80;99.90
35960;DHT22;22043;50.970;7.192;2022-07-30T02:14:23;17.80;99.90
35960;DHT22;22043;50.970;7.192;2022-07-30T02:16:53;17.80;99.90
35960;DHT22;22043;50.970;7.192;2022-07-30T02:19:28;17.80;99.90
35960;DHT22;22043;50.970;7.192;2022-07-30T02:22:02;17.70;99.90
35960;DHT22;22043;50.970;7.192;2022-07-30T02:24:31;17.70;99.90
35960;DHT22;22043;50.970;7.192;2022-07-30T02:27:04;17.70;99.90
35960;DHT22;22043;50.970;7.192;2022-07-30T02:29:34;17.70;99.90
35960;DHT22;22043;50.970;7.192;2022-07-30T02:32:05;17.60;99.90
35960;DHT22;22043;50.970;7.192;2022-07-30T02:34:36;17.60;99.90
35960;DHT22;22043;50.970;7.192;2022-07-30T02:37:04;17.60;99.90
35960;DHT22;22043;50.970;7.192;2022-07-30T02:39:32;17.60;99.90
35960;DHT22;22043;50.970;7.192;2022-07-30T02:41:59;17.60;99.90
35960;DHT22;22043;50.970;7.192;2022-07-30T02:44:26;17.60;99.90
35960;DHT22;22043;50.970;7.192;2022-07-30T02:46:55;17.60;99.90
35960;DHT22;22043;50.970;7.192;2022-07-30T02:49:28;17.60;99.90
35960;DHT22;22043;50.970;7.192;2022-07-30T02:51:57;17.60;99.90
35960;DHT22;22043;50.970;7.192;2022-07-30T02:54:24;17.60;99.90
35960;DHT22;22043;50.970;7.192;2022-07-30T02:56:53;17.60;99.90
35960;DHT22;22043;50.970;7.192;2022-07-30T02:59:21;17.60;99.90
35960;DHT22;22043;50.970;7.192;2022-07-30T03:01:48;17.50;99.90
35960;DHT22;22043;50.970;7.192;2022-07-30T03:04:18;17.50;99.90
35960;DHT22;22043;50.970;7.192;2022-07-30T03:06:45;17.50;99.90
35960;DHT22;22043;50.970;7.192;2022-07-30T03:09:15;17.50;99.90
35960;DHT22;22043;50.970;7.192;2022-07-30T03:11:41;17.50;99.90
35960;DHT22;22043;50.970;7.192;2022-07-30T03:14:07;17.40;99.90
35960;DHT22;22043;50.970;7.192;2022-07-30T03:16:36;17.40;99.90
35960;DHT22;22043;50.970;7.192;2022-07-30T03:19:06;17.40;99.90
35960;DHT22;22043;50.970;7.192;2022-07-30T03:21:34;17.40;99.90
35960;DHT22;22043;50.970;7.192;2022-07-30T03:24:01;17.40;99.90
35960;DHT22;22043;50.970;7.192;2022-07-30T03:26:29;17.30;99.90
35960;DHT22;22043;50.970;7.192;2022-07-30T03:28:56;17.30;99.90
35960;DHT22;22043;50.970;7.192;2022-07-30T03:31:22;17.30;99.90
35960;DHT22;22043;50.970;7.192;2022-07-30T03:33:49;17.30;99.90
35960;DHT22;22043;50.970;7.192;2022-07-30T03:36:16;17.30;99.90
35960;DHT22;22043;50.970;7.192;2022-07-30T03:38:43;17.30;99.90
35960;DHT22;22043;50.970;7.192;2022-07-30T03:41:10;17.30;99.90
35960;DHT22;22043;50.970;7.192;2022-07-30T03:43:38;17.30;99.90
35960;DHT22;22043;50.970;7.192;2022-07-30T03:46:05;17.30;99.90
35960;DHT22;22043;50.970;7.192;2022-07-30T03:48:35;17.30;99.90
35960;DHT22;22043;50.970;7.192;2022-07-30T03:51:03;17.30;99.90
35960;DHT22;22043;50.970;7.192;2022-07-30T03:53:30;17.30;99.90
35960;DHT22;22043;50.970;7.192;2022-07-30T03:56:35;17.20;99.90
35960;DHT22;22043;50.970;7.192;2022-07-30T03:59:05;17.20;99.90
35960;DHT22;22043;50.970;7.192;2022-07-30T04:01:32;17.20;99.90
35960;DHT22;22043;50.970;7.192;2022-07-30T04:04:07;17.20;99.90
35960;DHT22;22043;50.970;7.192;2022-07-30T04:06:34;17.20;99.90
35960;DHT22;22043;50.970;7.192;2022-07-30T04:09:08;17.20;99.90
35960;DHT22;22043;50.970;7.192;2022-07-30T04:11:34;17.20;99.90
35960;DHT22;22043;50.970;7.192;2022-07-30T04:14:12;17.10;99.90
35960;DHT22;22043;50.970;7.192;2022-07-30T04:16:53;17.10;99.90
35960;DHT22;22043;50.970;7.192;2022-07-30T04:19:45;17.10;99.90
35960;DHT22;22043;50.970;7.192;2022-07-30T04:22:15;17.10;99.90
35960;DHT22;22043;50.970;7.192;2022-07-30T04:24:44;17.10;99.90
35960;DHT22;22043;50.970;7.192;2022-07-30T04:27:11;17.10;99.90
35960;DHT22;22043;50.970;7.192;2022-07-30T04:29:39;17.10;99.90
35960;DHT22;22043;50.970;7.192;2022-07-30T04:32:07;17.10;99.90
35960;DHT22;22043;50.970;7.192;2022-07-30T04:34:33;17.10;99.90
35960;DHT22;22043;50.970;7.192;2022-07-30T04:36:59;17.20;99.90
35960;DHT22;22043;50.970;7.192;2022-07-30T04:39:25;17.20;99.90
35960;DHT22;22043;50.970;7.192;2022-07-30T04:41:51;17.20;99.90
35960;DHT22;22043;50.970;7.192;2022-07-30T04:44:37;17.20;99.90
35960;DHT22;22043;50.970;7.192;2022-07-30T04:47:23;17.30;99.90
35960;DHT22;22043;50.970;7.192;2022-07-30T04:50:06;17.20;99.90
35960;DHT22;22043;50.970;7.192;2022-07-30T04:52:34;17.20;99.90
35960;DHT22;22043;50.970;7.192;2022-07-30T04:55:05;17.20;99.90
35960;DHT22;22043;50.970;7.192;2022-07-30T04:57:33;17.20;99.90
35960;DHT22;22043;50.970;7.192;2022-07-30T05:00:00;17.20;99.90
35960;DHT22;22043;50.970;7.192;2022-07-30T05:02:29;17.20;99.90
35960;DHT22;22043;50.970;7.192;2022-07-30T05:04:56;17.20;99.90
35960;DHT22;22043;50.970;7.192;2022-07-30T05:07:24;17.20;99.90
35960;DHT22;22043;50.970;7.192;2022-07-30T05:09:50;17.20;99.90
35960;DHT22;22043;50.970;7.192;2022-07-30T05:12:16;17.20;99.90
35960;DHT22;22043;50.970;7.192;2022-07-30T05:14:41;17.20;99.90
35960;DHT22;22043;50.970;7.192;2022-07-30T05:17:07;17.20;99.90
35960;DHT22;22043;50.970;7.192;2022-07-30T05:19:33;17.20;99.90
35960;DHT22;22043;50.970;7.192;2022-07-30T05:21:59;17.20;99.90
35960;DHT22;22043;50.970;7.192;2022-07-30T05:24:24;17.20;99.90
35960;DHT22;22043;50.970;7.192;2022-07-30T05:26:54;17.20;99.90
35960;DHT22;22043;50.970;7.192;2022-07-30T05:29:22;17.20;99.90
35960;DHT22;22043;50.970;7.192;2022-07-30T05:31:52;17.20;99.90
35960;DHT22;22043;50.970;7.192;2022-07-30T05:34:18;17.20;99.90
35960;DHT22;22043;50.970;7.192;2022-07-30T05:36:44;17.20;99.90
35960;DHT22;22043;50.970;7.192;2022-07-30T05:39:12;17.20;99.90
35960;DHT22;22043;50.970;7.192;2022-07-30T05:42:04;17.30;99.90
35960;DHT22;22043;50.970;7.192;2022-07-30T05:44:40;17.30;99.90
35960;DHT22;22043;50.970;7.192;2022-07-30T05:47:06;17.30;99.90
35960;DHT22;22043;50.970;7.192;2022-07-30T05:49:32;17.30;99.90
35960;DHT22;22043;50.970;7.192;2022-07-30T05:52:05;17.30;99.90
35960;DHT22;22043;50.970;7.192;2022-07-30T05:54:31;17.30;99.90
35960;DHT22;22043;50.970;7.192;2022-07-30T05:57:15;17.30;99.90
35960;DHT22;22043;50.970;7.192;2022-07-30T05:59:41;17.30;99.90
35960;DHT22;22043;50.970;7.192;2022-07-30T06:02:23;17.30;99.90
35960;DHT22;22043;50.970;7.192;2022-07-30T06:05:20;17.40;99.90
35960;DHT22;22043;50.970;7.192;2022-07-30T06:07:47;17.40;99.90
35960;DHT22;22043;50.970;7.192;2022-07-30T06:10:14;17.40;99.90
35960;DHT22;22043;50.970;7.192;2022-07-30T06:12:40;17.40;99.90
35960;DHT22;22043;50.970;7.192;2022-07-30T06:15:09;17.40;99.90
35960;DHT22;22043;50.970;7.192;2022-07-30T06:17:41;17.50;99.90
35960;DHT22;22043;50.970;7.192;2022-07-30T06:20:14;17.50;99.90
35960;DHT22;22043;50.970;7.192;2022-07-30T06:22:56;17.50;99.90
35960;DHT22;22043;50.970;7.192;2022-07-30T06:25:30;17.50;99.90
35960;DHT22;22043;50.970;7.192;2022-07-30T06:27:56;17.50;99.90
35960;DHT22;22043;50.970;7.192;2022-07-30T06:30:22;17.50;99.90
35960;DHT22;22043;50.970;7.192;2022-07-30T06:32:48;17.60;99.90
35960;DHT22;22043;50.970;7.192;2022-07-30T06:35:16;17.50;99.90
35960;DHT22;22043;50.970;7.192;2022-07-30T06:37:41;17.60;99.90
35960;DHT22;22043;50.970;7.192;2022-07-30T06:40:08;17.60;99.90
35960;DHT22;22043;50.970;7.192;2022-07-30T06:42:44;17.60;99.90
35960;DHT22;22043;50.970;7.192;2022-07-30T06:45:29;17.70;99.90
35960;DHT22;22043;50.970;7.192;2022-07-30T06:48:13;17.70;99.90
35960;DHT22;22043;50.970;7.192;2022-07-30T06:50:40;17.70;99.90
35960;DHT22;22043;50.970;7.192;2022-07-30T06:53:09;17.70;99.90
35960;DHT22;22043;50.970;7.192;2022-07-30T06:55:55;17.70;99.90
35960;DHT22;22043;50.970;7.192;2022-07-30T06:58:21;17.70;99.90
35960;DHT22;22043;50.970;7.192;2022-07-30T07:01:22;17.70;99.90
35960;DHT22;22043;50.970;7.192;2022-07-30T07:03:49;17.70;99.90
35960;DHT22;22043;50.970;7.192;2022-07-30T07:06:16;17.70;99.90
35960;DHT22;22043;50.970;7.192;2022-07-30T07:08:42;17.80;99.90
35960;DHT22;22043;50.970;7.192;2022-07-30T07:11:11;17.80;99.90
35960;DHT22;22043;50.970;7.192;2022-07-30T07:13:43;17.90;99.90
35960;DHT22;22043;50.970;7.192;2022-07-30T07:16:15;17.90;99.90
35960;DHT22;22043;50.970;7.192;2022-07-30T07:18:47;17.90;99.90
35960;DHT22;22043;50.970;7.192;2022-07-30T07:21:15;18.00;99.90
35960;DHT22;22043;50.970;7.192;2022-07-30T07:23:42;18.00;99.90
35960;DHT22;22043;50.970;7.192;2022-07-30T07:26:16;18.00;99.90
35960;DHT22;22043;50.970;7.192;2022-07-30T07:28:42;18.00;99.90
35960;DHT22;22043;50.970;7.192;2022-07-30T07:31:09;18.10;99.90
35960;DHT22;22043;50.970;7.192;2022-07-30T07:33:36;18.10;99.90
35960;DHT22;22043;50.970;7.192;2022-07-30T07:36:02;18.10;99.90
35960;DHT22;22043;50.970;7.192;2022-07-30T07:38:31;18.20;99.90
35960;DHT22;22043;50.970;7.192;2022-07-30T07:40:59;18.20;99.90
35960;DHT22;22043;50.970;7.192;2022-07-30T07:43:26;18.30;99.90
35960;DHT22;22043;50.970;7.192;2022-07-30T07:45:55;18.30;99.90
35960;DHT22;22043;50.970;7.192;2022-07-30T07:48:21;18.30;99.90
35960;DHT22;22043;50.970;7.192;2022-07-30T07:50:55;18.40;99.90
35960;DHT22;22043;50.970;7.192;2022-07-30T07:53:25;18.40;99.90
35960;DHT22;22043;50.970;7.192;2022-07-30T07:55:51;18.40;99.90
35960;DHT22;22043;50.970;7.192;2022-07-30T07:58:18;18.50;99.90
35960;DHT22;22043;50.970;7.192;2022-07-30T08:00:45;18.50;99.90
35960;DHT22;22043;50.970;7.192;2022-07-30T08:03:11;18.60;99.90
35960;DHT22;22043;50.970;7.192;2022-07-30T08:05:37;18.60;99.90
35960;DHT22;22043;50.970;7.192;2022-07-30T08:08:18;18.60;99.90
35960;DHT22;22043;50.970;7.192;2022-07-30T08:11:05;18.60;99.90
35960;DHT22;22043;50.970;7.192;2022-07-30T08:14:06;18.60;99.90
35960;DHT22;22043;50.970;7.192;2022-07-30T08:16:55;18.60;99.90
35960;DHT22;22043;50.970;7.192;2022-07-30T08:19:39;18.60;99.90
35960;DHT22;22043;50.970;7.192;2022-07-30T08:22:10;18.50;99.90
35960;DHT22;22043;50.970;7.192;2022-07-30T08:24:36;18.50;99.90
35960;DHT22;22043;50.970;7.192;2022-07-30T08:27:02;18.50;99.90
35960;DHT22;22043;50.970;7.192;2022-07-30T08:29:28;18.50;99.90
35960;DHT22;22043;50.970;7.192;2022-07-30T08:31:54;18.50;99.90
35960;DHT22;22043;50.970;7.192;2022-07-30T08:34:23;18.50;99.90
35960;DHT22;22043;50.970;7.192;2022-07-30T08:36:50;18.50;99.90
35960;DHT22;22043;50.970;7.192;2022-07-30T08:39:16;18.50;99.90
35960;DHT22;22043;50.970;7.192;2022-07-30T08:41:41;18.60;99.90
35960;DHT22;22043;50.970;7.192;2022-07-30T08:44:10;18.60;99.90
35960;DHT22;22043;50.970;7.192;2022-07-30T08:46:40;18.60;99.90
35960;DHT22;22043;50.970;7.192;2022-07-30T08:49:15;18.70;99.90
35960;DHT22;22043;50.970;7.192;2022-07-30T08:51:42;18.70;99.90
35960;DHT22;22043;50.970;7.192;2022-07-30T08:54:41;18.70;99.90
35960;DHT22;22043;50.970;7.192;2022-07-30T08:57:08;18.70;99.90
35960;DHT22;22043;50.970;7.192;2022-07-30T08:59:37;18.80;99.90
35960;DHT22;22043;50.970;7.192;2022-07-30T09:02:03;18.80;99.90
35960;DHT22;22043;50.970;7.192;2022-07-30T09:04:30;18.80;99.90
35960;DHT22;22043;50.970;7.192;2022-07-30T09:06:56;18.90;99.90
35960;DHT22;22043;50.970;7.192;2022-07-30T09:09:22;18.90;99.90
35960;DHT22;22043;50.970;7.192;2022-07-30T09:11:48;18.90;99.90
35960;DHT22;22043;50.970;7.192;2022-07-30T09:14:16;18.90;99.90
35960;DHT22;22043;50.970;7.192;2022-07-30T09:16:43;18.90;99.90
35960;DHT22;22043;50.970;7.192;2022-07-30T09:19:15;19.00;99.90
35960;DHT22;22043;50.970;7.192;2022-07-30T09:21:41;19.00;99.90
35960;DHT22;22043;50.970;7.192;2022-07-30T09:24:20;19.10;99.90
35960;DHT22;22043;50.970;7.192;2022-07-30T09:29:38;19.20;99.90
35960;DHT22;22043;50.970;7.192;2022-07-30T09:32:22;19.20;99.90
35960;DHT22;22043;50.970;7.192;2022-07-30T09:35:12;19.20;99.90
35960;DHT22;22043;50.970;7.192;2022-07-30T09:38:01;19.30;99.90
35960;DHT22;22043;50.970;7.192;2022-07-30T09:41:07;19.30;99.90
35960;DHT22;22043;50.970;7.192;2022-07-30T09:43:44;19.30;99.90
35960;DHT22;22043;50.970;7.192;2022-07-30T09:46:18;19.50;99.90
35960;DHT22;22043;50.970;7.192;2022-07-30T09:48:44;19.50;99.90
35960;DHT22;22043;50.970;7.192;2022-07-30T09:51:12;19.40;99.90
35960;DHT22;22043;50.970;7.192;2022-07-30T09:53:55;19.40;99.90
35960;DHT22;22043;50.970;7.192;2022-07-30T09:56:25;19.40;99.90
35960;DHT22;22043;50.970;7.192;2022-07-30T09:58:52;19.50;99.90
35960;DHT22;22043;50.970;7.192;2022-07-30T10:01:19;19.60;99.90
35960;DHT22;22043;50.970;7.192;2022-07-30T10:04:03;19.70;99.90
35960;DHT22;22043;50.970;7.192;2022-07-30T10:07:01;19.70;99.90
35960;DHT22;22043;50.970;7.192;2022-07-30T10:09:38;19.70;99.90
35960;DHT22;22043;50.970;7.192;2022-07-30T10:12:13;19.70;99.90
35960;DHT22;22043;50.970;7.192;2022-07-30T10:14:43;19.70;99.90
35960;DHT22;22043;50.970;7.192;2022-07-30T10:17:12;19.80;99.90
35960;DHT22;22043;50.970;7.192;2022-07-30T10:19:41;19.80;99.90
35960;DHT22;22043;50.970;7.192;2022-07-30T10:22:13;19.90;99.90
35960;DHT22;22043;50.970;7.192;2022-07-30T10:24:58;20.00;99.90
35960;DHT22;22043;50.970;7.192;2022-07-30T10:27:45;20.10;99.90
35960;DHT22;22043;50.970;7.192;2022-07-30T10:30:25;20.10;99.90
35960;DHT22;22043;50.970;7.192;2022-07-30T10:32:52;20.30;99.90
35960;DHT22;22043;50.970;7.192;2022-07-30T10:35:17;20.40;99.90
35960;DHT22;22043;50.970;7.192;2022-07-30T10:37:47;20.40;99.90
35960;DHT22;22043;50.970;7.192;2022-07-30T10:45:22;20.30;99.90
35960;DHT22;22043;50.970;7.192;2022-07-30T10:47:52;20.20;99.90
35960;DHT22;22043;50.970;7.192;2022-07-30T10:50:22;20.20;99.90
35960;DHT22;22043;50.970;7.192;2022-07-30T10:55:20;20.10;99.90
35960;DHT22;22043;50.970;7.192;2022-07-30T11:00:26;20.10;99.90
35960;DHT22;22043;50.970;7.192;2022-07-30T11:05:39;20.20;99.90
35960;DHT22;22043;50.970;7.192;2022-07-30T11:08:42;20.30;99.90
35960;DHT22;22043;50.970;7.192;2022-07-30T11:14:00;20.40;99.90
35960;DHT22;22043;50.970;7.192;2022-07-30T11:19:02;20.40;99.90
35960;DHT22;22043;50.970;7.192;2022-07-30T11:21:29;20.40;99.90
35960;DHT22;22043;50.970;7.192;2022-07-30T11:23:54;20.40;99.90
35960;DHT22;22043;50.970;7.192;2022-07-30T11:29:37;20.40;99.90
35960;DHT22;22043;50.970;7.192;2022-07-30T11:32:23;20.40;99.90
35960;DHT22;22043;50.970;7.192;2022-07-30T11:34:50;20.30;99.90
35960;DHT22;22043;50.970;7.192;2022-07-30T11:37:15;20.40;99.90
35960;DHT22;22043;50.970;7.192;2022-07-30T11:40:05;20.50;99.90
35960;DHT22;22043;50.970;7.192;2022-07-30T11:42:34;20.60;99.90
35960;DHT22;22043;50.970;7.192;2022-07-30T11:47:46;20.70;99.90
35960;DHT22;22043;50.970;7.192;2022-07-30T11:50:23;20.70;99.90
35960;DHT22;22043;50.970;7.192;2022-07-30T11:52:58;20.70;99.90
35960;DHT22;22043;50.970;7.192;2022-07-30T11:55:24;20.70;99.90
35960;DHT22;22043;50.970;7.192;2022-07-30T11:57:51;20.60;99.90
35960;DHT22;22043;50.970;7.192;2022-07-30T12:00:18;20.60;99.90
35960;DHT22;22043;50.970;7.192;2022-07-30T12:02:45;20.60;99.90
35960;DHT22;22043;50.970;7.192;2022-07-30T12:05:11;20.60;99.90
35960;DHT22;22043;50.970;7.192;2022-07-30T12:07:37;20.60;99.90
35960;DHT22;22043;50.970;7.192;2022-07-30T12:10:13;20.70;99.90
35960;DHT22;22043;50.970;7.192;2022-07-30T12:12:39;20.70;99.90
35960;DHT22;22043;50.970;7.192;2022-07-30T12:15:05;20.80;99.90
35960;DHT22;22043;50.970;7.192;2022-07-30T12:17:41;20.80;99.90
35960;DHT22;22043;50.970;7.192;2022-07-30T12:20:18;20.80;99.90
35960;DHT22;22043;50.970;7.192;2022-07-30T12:22:44;20.70;99.90
35960;DHT22;22043;50.970;7.192;2022-07-30T12:25:11;20.80;99.90
35960;DHT22;22043;50.970;7.192;2022-07-30T12:27:37;20.90;99.90
35960;DHT22;22043;50.970;7.192;2022-07-30T12:30:04;20.90;99.90
35960;DHT22;22043;50.970;7.192;2022-07-30T12:32:30;21.00;99.90
35960;DHT22;22043;50.970;7.192;2022-07-30T12:34:57;21.10;99.90
35960;DHT22;22043;50.970;7.192;2022-07-30T12:37:23;21.10;99.90
35960;DHT22;22043;50.970;7.192;2022-07-30T12:40:12;21.10;99.90
35960;DHT22;22043;50.970;7.192;2022-07-30T12:42:51;21.10;99.90
35960;DHT22;22043;50.970;7.192;2022-07-30T12:45:31;21.10;99.90
35960;DHT22;22043;50.970;7.192;2022-07-30T12:47:58;21.20;99.90
35960;DHT22;22043;50.970;7.192;2022-07-30T12:50:25;21.20;99.90
35960;DHT22;22043;50.970;7.192;2022-07-30T12:52:53;21.20;99.90
35960;DHT22;22043;50.970;7.192;2022-07-30T12:55:34;21.30;99.90
35960;DHT22;22043;50.970;7.192;2022-07-30T12:58:00;21.30;99.90
35960;DHT22;22043;50.970;7.192;2022-07-30T13:00:29;21.30;99.90
35960;DHT22;22043;50.970;7.192;2022-07-30T13:02:56;21.40;99.90
35960;DHT22;22043;50.970;7.192;2022-07-30T13:05:48;21.50;99.90
35960;DHT22;22043;50.970;7.192;2022-07-30T13:08:15;21.50;99.90
35960;DHT22;22043;50.970;7.192;2022-07-30T13:10:55;21.50;99.90
35960;DHT22;22043;50.970;7.192;2022-07-30T13:13:21;21.50;99.90
35960;DHT22;22043;50.970;7.192;2022-07-30T13:15:59;21.60;99.90
35960;DHT22;22043;50.970;7.192;2022-07-30T13:18:26;21.60;99.90
35960;DHT22;22043;50.970;7.192;2022-07-30T13:20:52;21.60;99.40
35960;DHT22;22043;50.970;7.192;2022-07-30T13:23:18;21.80;99.30
35960;DHT22;22043;50.970;7.192;2022-07-30T13:25:44;21.90;99.40
35960;DHT22;22043;50.970;7.192;2022-07-30T13:28:09;22.00;99.00
35960;DHT22;22043;50.970;7.192;2022-07-30T13:30:35;22.10;99.60
35960;DHT22;22043;50.970;7.192;2022-07-30T13:33:00;22.10;99.90
35960;DHT22;22043;50.970;7.192;2022-07-30T13:35:26;22.00;99.90
35960;DHT22;22043;50.970;7.192;2022-07-30T13:37:52;22.00;99.30
35960;DHT22;22043;50.970;7.192;2022-07-30T13:40:17;22.00;99.00
35960;DHT22;22043;50.970;7.192;2022-07-30T13:42:43;22.00;98.30
35960;DHT22;22043;50.970;7.192;2022-07-30T13:45:09;22.00;97.90
35960;DHT22;22043;50.970;7.192;2022-07-30T13:47:35;22.00;98.00
35960;DHT22;22043;50.970;7.192;2022-07-30T13:50:00;21.90;99.90
35960;DHT22;22043;50.970;7.192;2022-07-30T13:52:26;21.90;98.60
35960;DHT22;22043;50.970;7.192;2022-07-30T13:54:52;21.80;99.70
35960;DHT22;22043;50.970;7.192;2022-07-30T13:57:18;21.70;99.90
35960;DHT22;22043;50.970;7.192;2022-07-30T13:59:44;21.70;99.90
35960;DHT22;22043;50.970;7.192;2022-07-30T14:02:10;21.60;99.50
35960;DHT22;22043;50.970;7.192;2022-07-30T14:04:36;21.60;99.60
35960;DHT22;22043;50.970;7.192;2022-07-30T14:07:02;21.60;99.90
35960;DHT22;22043;50.970;7.192;2022-07-30T14:09:27;21.50;99.90
35960;DHT22;22043;50.970;7.192;2022-07-30T14:11:53;21.60;99.90
35960;DHT22;22043;50.970;7.192;2022-07-30T14:14:19;21.50;99.90
35960;DHT22;22043;50.970;7.192;2022-07-30T14:16:47;21.70;99.60
35960;DHT22;22043;50.970;7.192;2022-07-30T14:19:16;21.80;99.60
35960;DHT22;22043;50.970;7.192;2022-07-30T14:21:42;21.90;99.40
35960;DHT22;22043;50.970;7.192;2022-07-30T14:24:08;22.10;98.80
35960;DHT22;22043;50.970;7.192;2022-07-30T14:26:36;22.20;98.10
35960;DHT22;22043;50.970;7.192;2022-07-30T14:29:04;22.20;98.30
35960;DHT22;22043;50.970;7.192;2022-07-30T14:31:29;22.20;98.40
35960;DHT22;22043;50.970;7.192;2022-07-30T14:33:55;22.20;99.00
35960;DHT22;22043;50.970;7.192;2022-07-30T14:36:21;22.20;99.30
35960;DHT22;22043;50.970;7.192;2022-07-30T14:38:47;22.10;98.70
35960;DHT22;22043;50.970;7.192;2022-07-30T14:41:13;22.20;97.90
35960;DHT22;22043;50.970;7.192;2022-07-30T14:43:39;22.30;98.30
35960;DHT22;22043;50.970;7.192;2022-07-30T14:46:04;22.30;97.60
35960;DHT22;22043;50.970;7.192;2022-07-30T14:48:30;22.30;97.10
35960;DHT22;22043;50.970;7.192;2022-07-30T14:50:56;22.30;97.00
35960;DHT22;22043;50.970;7.192;2022-07-30T14:53:21;22.40;97.30
35960;DHT22;22043;50.970;7.192;2022-07-30T14:55:47;22.40;97.60
35960;DHT22;22043;50.970;7.192;2022-07-30T14:58:13;22.40;98.10
35960;DHT22;22043;50.970;7.192;2022-07-30T15:00:38;22.30;97.70
35960;DHT22;22043;50.970;7.192;2022-07-30T15:03:04;22.30;97.50
35960;DHT22;22043;50.970;7.192;2022-07-30T15:05:30;22.30;97.60
35960;DHT22;22043;50.970;7.192;2022-07-30T15:07:55;22.40;97.20
35960;DHT22;22043;50.970;7.192;2022-07-30T15:10:21;22.40;97.70
35960;DHT22;22043;50.970;7.192;2022-07-30T15:12:47;22.40;97.30
35960;DHT22;22043;50.970;7.192;2022-07-30T15:15:12;22.40;97.00
35960;DHT22;22043;50.970;7.192;2022-07-30T15:17:38;22.50;96.80
35960;DHT22;22043;50.970;7.192;2022-07-30T15:20:05;22.50;97.00
35960;DHT22;22043;50.970;7.192;2022-07-30T15:22:34;22.50;97.90
35960;DHT22;22043;50.970;7.192;2022-07-30T15:25:00;22.60;97.30
35960;DHT22;22043;50.970;7.192;2022-07-30T15:27:26;22.60;97.80
35960;DHT22;22043;50.970;7.192;2022-07-30T15:29:52;22.60;97.50
35960;DHT22;22043;50.970;7.192;2022-07-30T15:32:18;22.50;97.80
35960;DHT22;22043;50.970;7.192;2022-07-30T15:34:43;22.40;97.90
35960;DHT22;22043;50.970;7.192;2022-07-30T15:37:09;22.60;97.50
35960;DHT22;22043;50.970;7.192;2022-07-30T15:39:35;22.50;97.50
35960;DHT22;22043;50.970;7.192;2022-07-30T15:42:01;22.50;97.90
35960;DHT22;22043;50.970;7.192;2022-07-30T15:44:27;22.60;97.70
35960;DHT22;22043;50.970;7.192;2022-07-30T15:46:53;22.60;97.40
35960;DHT22;22043;50.970;7.192;2022-07-30T15:49:19;22.60;97.10
35960;DHT22;22043;50.970;7.192;2022-07-30T15:51:45;22.60;97.20
35960;DHT22;22043;50.970;7.192;2022-07-30T15:54:14;22.60;97.60
35960;DHT22;22043;50.970;7.192;2022-07-30T15:56:40;22.60;96.50
35960;DHT22;22043;50.970;7.192;2022-07-30T15:59:06;22.50;96.70
35960;DHT22;22043;50.970;7.192;2022-07-30T16:01:33;22.60;97.40
35960;DHT22;22043;50.970;7.192;2022-07-30T16:03:58;22.50;97.50
35960;DHT22;22043;50.970;7.192;2022-07-30T16:06:24;22.50;97.30
35960;DHT22;22043;50.970;7.192;2022-07-30T16:08:50;22.40;97.40
35960;DHT22;22043;50.970;7.192;2022-07-30T16:11:16;22.30;97.60
35960;DHT22;22043;50.970;7.192;2022-07-30T16:13:41;22.30;97.30
35960;DHT22;22043;50.970;7.192;2022-07-30T16:16:07;22.30;97.10
35960;DHT22;22043;50.970;7.192;2022-07-30T16:18:33;22.30;96.90